createdAt,value
2018-07-09T00:01:01.925Z,99388.83
2018-07-09T00:03:30.666Z,99382.38
2018-07-09T00:05:59.405Z,99392.41
2018-07-09T00:08:28.126Z,99381.22
2018-07-09T00:11:00.573Z,99386.63
2018-07-09T00:13:30.193Z,99387.98
2018-07-09T00:15:59.039Z,99385.27
2018-07-09T00:18:27.792Z,99386.16
2018-07-09T00:20:56.518Z,99384.54
2018-07-09T00:23:25.269Z,99382.97
2018-07-09T00:25:54.657Z,99379.39
2018-07-09T00:28:23.868Z,99379.66
2018-07-09T00:30:52.645Z,99379.36
2018-07-09T00:33:21.806Z,99377.69
2018-07-09T00:35:50.597Z,99379.01
2018-07-09T00:38:19.822Z,99387.73
2018-07-09T00:40:48.565Z,99378.80
2018-07-09T00:43:17.379Z,99378.05
2018-07-09T00:45:46.165Z,99373.48
2018-07-09T00:48:14.962Z,99370.17
2018-07-09T00:50:43.777Z,99372.89
2018-07-09T00:53:12.535Z,99372.04
2018-07-09T00:55:41.314Z,99372.00
2018-07-09T00:58:10.086Z,99372.55
2018-07-09T01:00:39.007Z,99369.83
2018-07-09T01:03:07.780Z,99367.41
2018-07-09T01:05:36.529Z,99362.47
2018-07-09T01:08:05.342Z,99358.98
2018-07-09T01:10:38.583Z,99361.66
2018-07-09T01:13:07.356Z,99361.11
2018-07-09T01:15:36.100Z,99359.53
2018-07-09T01:18:04.826Z,99358.95
2018-07-09T01:20:33.603Z,99358.64
2018-07-09T01:23:02.711Z,99356.77
2018-07-09T01:25:31.478Z,99355.91
2018-07-09T01:28:00.209Z,99358.95
2018-07-09T01:30:35.423Z,99359.53
2018-07-09T01:33:04.187Z,99356.21
2018-07-09T01:35:32.943Z,99355.45
2018-07-09T01:38:01.689Z,99357.12
2018-07-09T01:40:30.448Z,99359.59
2018-07-09T01:42:59.206Z,99356.14
2018-07-09T01:45:28.023Z,99358.56
2018-07-09T01:47:56.777Z,99353.72
2018-07-09T01:50:25.558Z,99357.98
2018-07-09T01:52:54.334Z,99361.41
2018-07-09T01:55:23.094Z,99360.95
2018-07-09T01:57:51.928Z,99363.97
2018-07-09T02:00:20.734Z,99363.63
2018-07-09T02:02:49.492Z,99363.36
2018-07-09T02:05:18.257Z,99363.63
2018-07-09T02:07:47.022Z,99367.11
2018-07-09T02:10:15.785Z,99363.36
2018-07-09T02:12:44.534Z,99364.72
2018-07-09T02:15:13.297Z,99368.77
2018-07-09T02:17:42.058Z,99368.52
2018-07-09T02:20:10.777Z,99371.79
2018-07-09T02:22:39.573Z,99372.08
2018-07-09T02:25:08.337Z,99371.48
2018-07-09T02:27:37.103Z,99374.20
2018-07-09T02:30:05.901Z,99373.14
2018-07-09T02:32:34.747Z,99377.58
2018-07-09T02:35:03.560Z,99370.77
2018-07-09T02:37:32.350Z,99383.31
2018-07-09T02:40:01.127Z,99379.70
2018-07-09T02:42:29.892Z,99377.86
2018-07-09T02:44:58.637Z,99384.67
2018-07-09T02:47:27.381Z,99382.00
2018-07-09T02:49:56.163Z,99379.83
2018-07-09T02:52:24.905Z,99381.95
2018-07-09T02:54:53.679Z,99372.64
2018-07-09T02:57:22.471Z,99378.29
2018-07-09T02:59:51.229Z,99374.81
2018-07-09T03:02:19.990Z,99374.81
2018-07-09T03:04:48.746Z,99378.88
2018-07-09T03:07:17.499Z,99383.52
2018-07-09T03:09:46.254Z,99383.57
2018-07-09T03:12:15.025Z,99388.53
2018-07-09T03:14:43.808Z,99390.96
2018-07-09T03:17:12.626Z,99387.65
2018-07-09T03:19:41.405Z,99388.41
2018-07-09T03:22:10.161Z,99392.45
2018-07-09T03:24:38.949Z,99390.23
2018-07-09T03:27:07.717Z,99389.68
2018-07-09T03:29:36.511Z,99388.53
2018-07-09T03:32:05.317Z,99389.89
2018-07-09T03:34:34.099Z,99386.07
2018-07-09T03:37:02.863Z,99390.16
2018-07-09T03:39:31.629Z,99389.89
2018-07-09T03:42:06.534Z,99386.66
2018-07-09T03:44:35.286Z,99387.98
2018-07-09T03:47:04.082Z,99386.97
2018-07-09T03:49:32.829Z,99388.88
2018-07-09T03:52:01.613Z,99389.43
2018-07-09T03:54:30.481Z,99392.70
2018-07-09T03:56:59.273Z,99392.36
2018-07-09T03:59:28.051Z,99383.69
2018-07-09T04:01:56.860Z,99378.71
2018-07-09T04:04:25.661Z,99382.19
2018-07-09T04:06:54.478Z,99387.33
2018-07-09T04:09:23.212Z,99390.04
2018-07-09T04:11:51.987Z,99384.36
2018-07-09T04:14:20.775Z,99383.48
2018-07-09T04:16:49.541Z,99389.18
2018-07-09T04:19:18.286Z,99392.77
2018-07-09T04:21:47.037Z,99396.41
2018-07-09T04:24:15.777Z,99403.21
2018-07-09T04:26:44.561Z,99402.61
2018-07-09T04:29:13.354Z,99412.94
2018-07-09T04:31:42.146Z,99394.78
2018-07-09T04:34:10.969Z,99394.73
2018-07-09T04:36:39.751Z,99396.14
2018-07-09T04:39:08.930Z,99390.45
2018-07-09T04:41:37.934Z,99396.95
2018-07-09T04:44:06.729Z,99394.52
2018-07-09T04:46:35.490Z,99397.11
2018-07-09T04:49:04.442Z,99399.52
2018-07-09T04:51:33.270Z,99397.34
2018-07-09T04:54:02.033Z,99400.28
2018-07-09T04:56:35.070Z,99404.61
2018-07-09T04:59:04.646Z,99408.09
2018-07-09T05:01:33.448Z,99407.14
2018-07-09T05:04:02.222Z,99409.55
2018-07-09T05:06:30.963Z,99413.75
2018-07-09T05:09:06.641Z,99417.48
2018-07-09T05:11:35.571Z,99418.02
2018-07-09T05:14:04.421Z,99421.56
2018-07-09T05:16:33.965Z,99416.93
2018-07-09T05:19:02.986Z,99419.54
2018-07-09T05:21:31.799Z,99411.61
2018-07-09T05:24:01.301Z,99418.02
2018-07-09T05:26:30.112Z,99420.02
2018-07-09T05:28:58.897Z,99419.95
2018-07-09T05:31:27.711Z,99421.76
2018-07-09T05:33:56.550Z,99425.20
2018-07-09T05:36:25.379Z,99422.23
2018-07-09T05:38:54.118Z,99427.89
2018-07-09T05:41:22.935Z,99427.82
2018-07-09T05:43:51.959Z,99427.08
2018-07-09T05:46:20.766Z,99429.17
2018-07-09T05:48:49.625Z,99426.07
2018-07-09T05:51:18.442Z,99427.66
2018-07-09T05:53:47.228Z,99428.61
2018-07-09T05:56:15.979Z,99433.72
2018-07-09T05:58:44.773Z,99436.49
2018-07-09T06:01:13.522Z,99432.14
2018-07-09T06:03:42.311Z,99438.08
2018-07-09T06:06:11.301Z,99440.98
2018-07-09T06:08:40.148Z,99440.39
2018-07-09T06:11:08.927Z,99445.14
2018-07-09T06:13:37.753Z,99441.39
2018-07-09T06:16:06.514Z,99438.22
2018-07-09T06:18:35.300Z,99437.20
2018-07-09T06:21:04.042Z,99445.80
2018-07-09T06:23:32.786Z,99444.00
2018-07-09T06:26:01.534Z,99443.07
2018-07-09T06:28:30.278Z,99436.49
2018-07-09T06:30:59.175Z,99448.91
2018-07-09T06:33:27.915Z,99441.05
2018-07-09T06:35:56.702Z,99440.64
2018-07-09T06:38:25.444Z,99448.50
2018-07-09T06:40:54.198Z,99451.08
2018-07-09T06:43:23.074Z,99448.13
2018-07-09T06:45:51.854Z,99446.73
2018-07-09T06:48:20.661Z,99445.80
2018-07-09T06:50:50.421Z,99450.61
2018-07-09T06:53:19.163Z,99450.59
2018-07-09T06:55:47.997Z,99448.47
2018-07-09T06:58:16.731Z,99451.27
2018-07-09T07:00:45.536Z,99451.80
2018-07-09T07:03:14.342Z,99449.27
2018-07-09T07:05:43.118Z,99454.00
2018-07-09T07:08:11.955Z,99457.50
2018-07-09T07:10:40.798Z,99460.02
2018-07-09T07:13:09.537Z,99464.09
2018-07-09T07:15:38.298Z,99464.72
2018-07-09T07:18:07.011Z,99466.88
2018-07-09T07:20:35.769Z,99464.36
2018-07-09T07:23:04.520Z,99468.13
2018-07-09T07:25:33.249Z,99470.02
2018-07-09T07:28:02.016Z,99468.25
2018-07-09T07:30:30.788Z,99471.56
2018-07-09T07:32:59.582Z,99471.62
2018-07-09T07:35:28.374Z,99477.27
2018-07-09T07:37:57.124Z,99475.36
2018-07-09T07:40:25.864Z,99473.01
2018-07-09T07:42:54.605Z,99476.31
2018-07-09T07:45:23.380Z,99478.59
2018-07-09T07:47:52.136Z,99481.83
2018-07-09T07:50:22.344Z,99474.80
2018-07-09T07:52:51.075Z,99480.21
2018-07-09T07:55:20.049Z,99472.88
2018-07-09T07:57:48.854Z,99468.18
2018-07-09T08:00:17.647Z,99466.27
2018-07-09T08:02:46.471Z,99462.88
2018-07-09T08:05:15.473Z,99461.63
2018-07-09T08:07:46.442Z,99463.70
2018-07-09T08:10:15.186Z,99464.39
2018-07-09T08:13:26.858Z,99462.55
2018-07-09T08:15:12.891Z,99461.52
2018-07-09T08:17:41.690Z,99463.84
2018-07-09T08:20:10.548Z,99456.58
2018-07-09T08:22:39.269Z,99464.52
2018-07-09T08:25:08.161Z,99466.81
2018-07-09T08:27:42.327Z,99466.70
2018-07-09T08:30:13.052Z,99465.92
2018-07-09T08:35:18.648Z,99470.58
2018-07-09T08:37:53.792Z,99472.06
2018-07-09T08:40:23.130Z,99470.06
2018-07-09T08:42:51.888Z,99470.40
2018-07-09T08:45:24.250Z,99474.69
2018-07-09T08:48:05.225Z,99476.45
2018-07-09T08:50:38.624Z,99472.80
2018-07-09T08:53:07.702Z,99482.77
2018-07-09T08:55:36.774Z,99475.39
2018-07-09T08:58:05.861Z,99476.24
2018-07-09T09:00:34.873Z,99479.55
2018-07-09T09:03:08.477Z,99479.95
2018-07-09T09:05:37.686Z,99479.03
2018-07-09T09:08:07.618Z,99480.09
2018-07-09T09:10:36.359Z,99480.25
2018-07-09T09:13:05.181Z,99472.91
2018-07-09T09:15:34.181Z,99476.42
2018-07-09T09:18:03.023Z,99486.23
2018-07-09T09:20:35.338Z,99483.31
2018-07-09T09:23:04.149Z,99483.88
2018-07-09T09:25:33.052Z,99481.36
2018-07-09T09:28:01.894Z,99480.61
2018-07-09T09:30:30.804Z,99480.61
2018-07-09T09:32:59.834Z,99480.56
2018-07-09T09:35:28.818Z,99478.83
2018-07-09T09:37:57.955Z,99483.70
2018-07-09T09:40:27.649Z,99480.77
2018-07-09T09:42:56.689Z,99483.75
2018-07-09T09:45:25.538Z,99480.13
2018-07-09T09:47:54.334Z,99476.78
2018-07-09T09:50:23.092Z,99477.34
2018-07-09T09:52:51.982Z,99478.95
2018-07-09T09:55:20.915Z,99479.23
2018-07-09T09:57:49.845Z,99480.04
2018-07-09T10:00:22.500Z,99481.69
2018-07-09T10:02:51.281Z,99491.18
2018-07-09T10:05:20.114Z,99495.02
2018-07-09T10:07:49.213Z,99494.08
2018-07-09T10:10:18.151Z,99489.55
2018-07-09T10:12:46.875Z,99491.09
2018-07-09T10:15:15.679Z,99490.77
2018-07-09T10:17:44.538Z,99488.89
2018-07-09T10:20:13.992Z,99482.14
2018-07-09T10:22:42.970Z,99489.83
2018-07-09T10:25:11.980Z,99488.27
2018-07-09T10:27:40.766Z,99490.80
2018-07-09T10:30:09.760Z,99488.27
2018-07-09T10:32:38.558Z,99479.50
2018-07-09T10:35:07.330Z,99481.14
2018-07-09T10:37:36.257Z,99486.88
2018-07-09T10:40:05.646Z,99484.70
2018-07-09T10:42:34.543Z,99480.20
2018-07-09T10:45:03.295Z,99475.95
2018-07-09T10:47:32.240Z,99473.59
2018-07-09T10:50:00.982Z,99475.28
2018-07-09T10:52:29.746Z,99472.63
2018-07-09T10:54:58.552Z,99471.26
2018-07-09T10:57:27.360Z,99463.23
2018-07-09T10:59:56.162Z,99459.59
2018-07-09T11:02:24.942Z,99455.83
2018-07-09T11:04:53.708Z,99459.93
2018-07-09T11:07:22.544Z,99464.03
2018-07-09T11:09:51.471Z,99461.09
2018-07-09T11:12:21.812Z,99456.02
2018-07-09T11:14:52.171Z,99448.95
2018-07-09T11:17:20.914Z,99449.91
2018-07-09T11:19:49.697Z,99447.82
2018-07-09T11:22:18.496Z,99445.58
2018-07-09T11:24:47.290Z,99445.64
2018-07-09T11:27:16.099Z,99437.50
2018-07-09T11:29:44.996Z,99438.81
2018-07-09T11:32:13.964Z,99437.30
2018-07-09T11:34:42.989Z,99441.90
2018-07-09T11:37:11.762Z,99435.89
2018-07-09T11:39:40.582Z,99434.09
2018-07-09T11:42:11.078Z,99437.88
2018-07-09T11:44:40.530Z,99440.09
2018-07-09T11:47:09.431Z,99431.72
2018-07-09T11:49:38.199Z,99438.16
2018-07-09T11:52:07.076Z,99438.08
2018-07-09T11:54:35.830Z,99428.97
2018-07-09T11:57:04.610Z,99426.33
2018-07-09T11:59:33.422Z,99424.55
2018-07-09T12:02:02.165Z,99413.87
2018-07-09T12:04:30.886Z,99416.65
2018-07-09T12:06:59.680Z,99429.50
2018-07-09T12:09:28.498Z,99415.81
2018-07-09T12:11:57.238Z,99416.25
2018-07-09T12:14:26.052Z,99421.22
2018-07-09T12:16:54.806Z,99408.38
2018-07-09T12:19:23.563Z,99409.64
2018-07-09T12:21:52.301Z,99403.67
2018-07-09T12:24:21.153Z,99406.47
2018-07-09T12:26:49.880Z,99410.42
2018-07-09T12:29:18.625Z,99406.13
2018-07-09T12:31:47.382Z,99412.80
2018-07-09T12:34:16.156Z,99410.64
2018-07-09T12:36:44.915Z,99412.20
2018-07-09T12:39:13.854Z,99411.27
2018-07-09T12:41:42.661Z,99414.90
2018-07-09T12:44:11.437Z,99408.16
2018-07-09T12:46:40.278Z,99409.77
2018-07-09T12:49:09.031Z,99412.53
2018-07-09T12:51:37.826Z,99406.47
2018-07-09T12:54:06.698Z,99406.31
2018-07-09T12:56:36.020Z,99404.83
2018-07-09T12:59:05.066Z,99404.81
2018-07-09T13:01:33.948Z,99395.20
2018-07-09T13:04:02.756Z,99392.31
2018-07-09T13:06:31.516Z,99385.65
2018-07-09T13:09:00.254Z,99386.63
2018-07-09T13:11:29.041Z,99381.84
2018-07-09T13:13:57.803Z,99368.81
2018-07-09T13:16:26.583Z,99366.27
2018-07-09T13:18:55.407Z,99363.48
2018-07-09T13:21:24.126Z,99365.11
2018-07-09T13:23:52.933Z,99364.95
2018-07-09T13:26:21.784Z,99368.14
2018-07-09T13:28:51.678Z,99369.47
2018-07-09T13:31:20.533Z,99373.91
2018-07-09T13:33:49.341Z,99382.33
2018-07-09T13:36:18.090Z,99384.39
2018-07-09T13:38:46.853Z,99379.59
2018-07-09T13:41:15.654Z,99384.40
2018-07-09T13:43:44.464Z,99383.30
2018-07-09T13:46:13.225Z,99396.11
2018-07-09T13:48:42.010Z,99396.91
2018-07-09T13:51:10.893Z,99398.53
2018-07-09T13:53:40.096Z,99396.48
2018-07-09T13:56:08.891Z,99402.88
2018-07-09T13:58:38.073Z,99399.12
2018-07-09T14:01:06.854Z,99397.98
2018-07-09T14:03:35.607Z,99397.73
2018-07-09T14:06:04.387Z,99395.56
2018-07-09T14:08:33.203Z,99391.16
2018-07-09T14:11:02.050Z,99394.07
2018-07-09T14:13:30.808Z,99394.68
2018-07-09T14:15:59.730Z,99389.69
2018-07-09T14:18:28.494Z,99390.48
2018-07-09T14:20:57.329Z,99386.84
2018-07-09T14:23:26.087Z,99397.45
2018-07-09T14:25:54.882Z,99387.11
2018-07-09T14:28:23.693Z,99396.21
2018-07-09T14:30:52.432Z,99390.80
2018-07-09T14:33:21.239Z,99395.92
2018-07-09T14:35:50.030Z,99388.16
2018-07-09T14:38:18.769Z,99394.08
2018-07-09T14:40:47.508Z,99393.48
2018-07-09T14:43:16.277Z,99392.75
2018-07-09T14:45:45.092Z,99382.61
2018-07-09T14:48:13.854Z,99389.33
2018-07-09T14:50:42.675Z,99391.25
2018-07-09T14:53:11.629Z,99401.31
2018-07-09T14:55:40.456Z,99396.14
2018-07-09T14:58:09.250Z,99393.09
2018-07-09T15:00:38.110Z,99392.17
2018-07-09T15:03:07.097Z,99396.78
2018-07-09T15:05:35.905Z,99399.98
2018-07-09T15:08:04.679Z,99394.55
2018-07-09T15:10:33.444Z,99398.22
2018-07-09T15:13:02.181Z,99391.56
2018-07-09T15:15:30.926Z,99388.48
2018-07-09T15:17:59.735Z,99392.63
2018-07-09T15:20:28.632Z,99385.64
2018-07-09T15:22:57.487Z,99387.82
2018-07-09T15:25:26.262Z,99381.98
2018-07-09T15:27:55.017Z,99388.89
2018-07-09T15:30:23.731Z,99389.34
2018-07-09T15:32:52.434Z,99382.73
2018-07-09T15:35:21.181Z,99371.38
2018-07-09T15:37:50.389Z,99381.39
2018-07-09T15:40:19.119Z,99378.95
2018-07-09T15:42:47.832Z,99382.17
2018-07-09T15:45:16.704Z,99386.73
2018-07-09T15:47:45.540Z,99398.34
2018-07-09T15:50:14.243Z,99397.05
2018-07-09T15:52:43.133Z,99406.22
2018-07-09T15:55:12.495Z,99391.77
2018-07-09T15:57:41.473Z,99388.48
2018-07-09T16:00:10.525Z,99382.95
2018-07-09T16:02:39.802Z,99385.03
2018-07-09T16:05:08.871Z,99381.08
2018-07-09T16:07:38.060Z,99382.70
2018-07-09T16:10:07.289Z,99384.78
2018-07-09T16:12:36.231Z,99394.89
2018-07-09T16:15:05.669Z,99387.53
2018-07-09T16:17:34.745Z,99384.55
2018-07-09T16:20:04.994Z,99387.86
2018-07-09T16:22:34.265Z,99391.03
2018-07-09T16:25:03.452Z,99386.41
2018-07-09T16:27:32.641Z,99383.13
2018-07-09T16:30:01.848Z,99387.90
2018-07-09T16:32:31.165Z,99379.98
2018-07-09T16:35:00.301Z,99386.20
2018-07-09T16:37:29.021Z,99396.91
2018-07-09T16:39:57.730Z,99392.65
2018-07-09T16:42:26.558Z,99392.38
2018-07-09T16:44:55.300Z,99396.64
2018-07-09T16:47:24.178Z,99398.81
2018-07-09T16:49:52.927Z,99396.45
2018-07-09T16:52:21.652Z,99397.81
2018-07-09T16:54:50.450Z,99404.58
2018-07-09T16:57:19.193Z,99402.97
2018-07-09T16:59:47.984Z,99407.93
2018-07-09T17:02:16.702Z,99414.11
2018-07-09T17:04:45.439Z,99404.83
2018-07-09T17:07:14.169Z,99400.07
2018-07-09T17:09:42.942Z,99405.38
2018-07-09T17:12:11.686Z,99414.89
2018-07-09T17:14:40.405Z,99422.18
2018-07-09T17:17:09.290Z,99419.19
2018-07-09T17:19:38.149Z,99414.24
2018-07-09T17:22:06.854Z,99405.84
2018-07-09T17:24:35.581Z,99408.84
2018-07-09T17:27:04.680Z,99412.15
2018-07-09T17:29:33.411Z,99420.80
2018-07-09T17:32:02.165Z,99411.78
2018-07-09T17:34:31.362Z,99422.84
2018-07-09T17:37:00.095Z,99425.06
2018-07-09T17:39:28.833Z,99433.22
2018-07-09T17:41:57.875Z,99435.98
2018-07-09T17:44:26.617Z,99436.86
2018-07-09T17:46:55.716Z,99441.77
2018-07-09T17:49:24.901Z,99446.77
2018-07-09T17:51:53.742Z,99442.42
2018-07-09T17:54:22.514Z,99441.30
2018-07-09T17:56:51.349Z,99442.91
2018-07-09T17:59:20.086Z,99447.33
2018-07-09T18:01:48.839Z,99446.83
2018-07-09T18:04:17.573Z,99448.44
2018-07-09T18:06:46.440Z,99456.48
2018-07-09T18:09:16.067Z,99461.63
2018-07-09T18:11:45.418Z,99468.56
2018-07-09T18:14:14.199Z,99473.60
2018-07-09T18:16:42.925Z,99480.84
2018-07-09T18:19:11.839Z,99477.68
2018-07-09T18:21:40.608Z,99474.80
2018-07-09T18:24:09.374Z,99476.97
2018-07-09T18:26:38.403Z,99476.80
2018-07-09T18:29:07.167Z,99476.22
2018-07-09T18:31:35.903Z,99486.31
2018-07-09T18:34:04.726Z,99482.63
2018-07-09T18:36:33.486Z,99487.70
2018-07-09T18:39:02.272Z,99489.38
2018-07-09T18:41:31.030Z,99500.28
2018-07-09T18:43:59.760Z,99499.27
2018-07-09T18:46:28.544Z,99512.38
2018-07-09T18:48:57.462Z,99508.76
2018-07-09T18:51:26.194Z,99504.06
2018-07-09T18:53:54.958Z,99508.66
2018-07-09T18:56:23.678Z,99515.83
2018-07-09T18:58:52.471Z,99518.51
2018-07-09T19:01:21.231Z,99526.12
2018-07-09T19:03:50.086Z,99528.29
2018-07-09T19:06:32.371Z,99531.34
2018-07-09T19:09:01.216Z,99536.54
2018-07-09T19:11:30.175Z,99539.82
2018-07-09T19:13:58.972Z,99538.11
2018-07-09T19:16:27.793Z,99545.02
2018-07-09T19:19:07.469Z,99542.85
2018-07-09T19:21:47.289Z,99545.39
2018-07-09T19:24:14.693Z,99548.37
2018-07-09T19:26:42.406Z,99542.42
2018-07-09T19:29:09.845Z,99533.43
2018-07-09T19:31:37.286Z,99531.02
2018-07-09T19:34:04.734Z,99526.48
2018-07-09T19:36:32.262Z,99527.38
2018-07-09T19:38:59.657Z,99527.98
2018-07-09T19:41:27.299Z,99531.61
2018-07-09T19:43:54.750Z,99530.44
2018-07-09T19:46:22.213Z,99529.73
2018-07-09T19:48:49.750Z,99535.83
2018-07-09T19:51:17.185Z,99537.53
2018-07-09T19:53:44.627Z,99533.19
2018-07-09T19:56:12.052Z,99536.00
2018-07-09T19:58:39.459Z,99539.58
2018-07-09T20:01:06.889Z,99537.41
2018-07-09T20:03:34.305Z,99536.04
2018-07-09T20:06:01.734Z,99541.16
2018-07-09T20:08:34.231Z,99538.98
2018-07-09T20:11:06.835Z,99539.58
2018-07-09T20:13:52.156Z,99547.75
2018-07-09T20:16:24.778Z,99543.16
2018-07-09T20:18:53.478Z,99553.49
2018-07-09T20:21:20.885Z,99554.30
2018-07-09T20:23:48.290Z,99549.41
2018-07-09T20:26:15.718Z,99550.47
2018-07-09T20:28:43.124Z,99543.45
2018-07-09T20:31:10.621Z,99544.77
2018-07-09T20:33:38.039Z,99555.11
2018-07-09T20:36:05.461Z,99560.01
2018-07-09T20:38:32.862Z,99556.69
2018-07-09T20:41:00.281Z,99556.94
2018-07-09T20:43:27.732Z,99554.22
2018-07-09T20:45:55.125Z,99552.85
2018-07-09T20:48:22.550Z,99545.50
2018-07-09T20:50:49.980Z,99550.73
2018-07-09T20:53:17.443Z,99546.77
2018-07-09T20:55:44.859Z,99541.09
2018-07-09T20:58:13.838Z,99547.65
2018-07-09T21:00:43.140Z,99556.92
2018-07-09T21:03:11.670Z,99552.29
2018-07-09T21:05:41.584Z,99556.66
2018-07-09T21:08:11.327Z,99546.84
2018-07-09T21:10:41.626Z,99547.88
2018-07-09T21:13:10.999Z,99552.77
2018-07-09T21:15:40.522Z,99561.52
2018-07-09T21:18:10.242Z,99564.20
2018-07-09T21:20:40.828Z,99565.31
2018-07-09T21:23:10.792Z,99569.39
2018-07-09T21:25:40.538Z,99562.11
2018-07-09T21:28:08.062Z,99557.29
2018-07-09T21:30:35.458Z,99553.47
2018-07-09T21:33:02.890Z,99543.42
2018-07-09T21:35:30.307Z,99539.89
2018-07-09T21:37:57.932Z,99541.80
2018-07-09T21:40:25.233Z,99539.86
2018-07-09T21:42:52.719Z,99544.75
2018-07-09T21:45:20.162Z,99548.31
2018-07-09T21:47:47.571Z,99545.59
2018-07-09T21:50:14.961Z,99546.95
2018-07-09T21:52:42.358Z,99543.13
2018-07-09T21:55:09.766Z,99538.45
2018-07-09T21:57:37.215Z,99533.83
2018-07-09T22:00:04.634Z,99529.26
2018-07-09T22:02:32.082Z,99526.80
2018-07-09T22:04:59.494Z,99520.47
2018-07-09T22:07:26.916Z,99515.28
2018-07-09T22:09:54.377Z,99516.94
2018-07-09T22:12:21.799Z,99517.27
2018-07-09T22:14:49.200Z,99512.93
2018-07-09T22:17:16.645Z,99520.58
2018-07-09T22:19:44.043Z,99532.09
2018-07-09T22:22:11.449Z,99527.78
2018-07-09T22:24:38.886Z,99529.63
2018-07-09T22:27:11.334Z,99514.66
2018-07-09T22:29:38.786Z,99519.84
2018-07-09T22:32:07.512Z,99518.78
2018-07-09T22:34:36.301Z,99518.78
2018-07-09T22:37:05.277Z,99514.66
2018-07-09T22:39:33.982Z,99509.18
2018-07-09T22:42:02.816Z,99508.38
2018-07-09T22:44:31.520Z,99514.11
2018-07-09T22:47:00.341Z,99512.52
2018-07-09T22:49:29.061Z,99511.20
2018-07-09T22:51:57.781Z,99500.02
2018-07-09T22:54:26.550Z,99512.01
2018-07-09T22:56:55.280Z,99499.21
2018-07-09T22:59:24.094Z,99497.30
2018-07-09T23:01:52.832Z,99491.05
2018-07-09T23:04:21.554Z,99497.05
2018-07-09T23:06:50.292Z,99499.22
2018-07-09T23:10:28.350Z,99496.45
2018-07-09T23:13:23.043Z,99496.81
2018-07-09T23:19:10.998Z,99491.16
2018-07-09T23:22:20.706Z,99491.45
2018-07-09T23:24:48.166Z,99484.35
2018-07-09T23:27:15.600Z,99474.86
2018-07-09T23:29:43.021Z,99477.94
2018-07-09T23:32:10.429Z,99483.06
2018-07-09T23:34:37.837Z,99487.69
2018-07-09T23:37:05.284Z,99490.70
2018-07-09T23:39:32.691Z,99485.00
2018-07-09T23:42:00.150Z,99479.56
2018-07-09T23:44:27.574Z,99483.64
2018-07-09T23:46:54.981Z,99494.52
2018-07-09T23:49:22.423Z,99500.52
2018-07-09T23:51:49.842Z,99498.08
2018-07-09T23:54:17.265Z,99498.05
2018-07-09T23:56:53.894Z,99496.92
2018-07-09T23:59:33.587Z,99492.00
